Bastia, France

6:03 PM CET on December 27, 2014 (GMT +0100)
Poretta | Change Station
CLOSE
Current Station
Airport
Location: Bastia,
Elevation: 39 ft
Nearby Weather Stations

Elev 39 ft 42.54 °N, 9.49 °E | Updated 33 minutes ago

Light Rain
Light Rain
50 °F
Feels Like 50 °F
N
4
Wind Variable Wind from Variable

Today
High -- | Low -- °F
--% Chance of Precip.
Yesterday
High -- | Low -- °F
Precip. -- in
7:50 AM 4:55 PM
Waxing Crescent, 38% visible
Pressure 29.56 in
Visibility 6.2 miles
Clouds Few 3000 ft
Scattered Clouds 4300 ft
Mostly Cloudy 7000 ft
Dew Point 45 °F
Humidity 82%
Rainfall 0.00 in
Snow Depth Not available.
UV 0 out of 12
Pollen Not available.
Air Quality Not available.
Flu Activity Not available.
METAR LFKB 271630Z VRB03KT 9999 -RA FEW030 SCT043 BKN070 10/07 Q1001 NOSIG

More Conditions Fewer Conditions

Pressure 29.56 in
Visibility 6.2 miles
Clouds Few 3000 ft
Scattered Clouds 4300 ft
Mostly Cloudy 7000 ft
Dew Point 45 °F
Humidity 82%
Rainfall 0.00 in
Snow Depth Not available.
UV 0 out of 12
Pollen Not available.
Air Quality Not available.
Flu Activity Not available.
METAR LFKB 271630Z VRB03KT 9999 -RA FEW030 SCT043 BKN070 10/07 Q1001 NOSIG

More Conditions Fewer Conditions

10-Day Weather Forecast

Almanac

Astronomy

Dec. 27, 2014 Rise Set
Actual Time
Civil Twilight
Nautical Twilight
Astronomical Twilight
Moon
Length of Visible Light
Length of Day
Tomorrow will be .
, % of the Moon is Illuminated

Today's Extremes

Country Highs Country Lows

Community

WunderPhotos

Upload Photos

1,780,966 photos uploaded!

WunderBlogs® & News

Nearby

Air Quality

  Air Quality AQ Index Pollutant
Not available.

Snow Depth

Station Depth Elevation

Earthquake Activity

City Distance Mag. Time & Date
Minimum magnitude displayed is 2.5.

Coastal Water Temperatures

Place Temperature

Nearby Weather Stations